sensor_id;sensor_type;location;lat;lon;timestamp;pressure;altitude;pressure_sealevel;temperature;humidity
11712;BME280;5912;51.034;6.984;2023-01-16T00:00:45;98055.88;;;3.04;79.79
11712;BME280;5912;51.034;6.984;2023-01-16T00:03:10;98049.53;;;3.00;80.32
11712;BME280;5912;51.034;6.984;2023-01-16T00:05:35;98047.97;;;2.99;81.61
11712;BME280;5912;51.034;6.984;2023-01-16T00:08:01;98040.81;;;2.94;81.71
11712;BME280;5912;51.034;6.984;2023-01-16T00:10:26;98012.16;;;2.71;81.81
11712;BME280;5912;51.034;6.984;2023-01-16T00:12:51;98032.88;;;2.89;80.62
11712;BME280;5912;51.034;6.984;2023-01-16T00:15:17;98019.16;;;2.89;80.63
11712;BME280;5912;51.034;6.984;2023-01-16T00:17:43;98018.84;;;2.97;79.42
11712;BME280;5912;51.034;6.984;2023-01-16T00:20:09;98023.16;;;3.03;79.88
11712;BME280;5912;51.034;6.984;2023-01-16T00:22:35;98005.28;;;2.95;79.45
11712;BME280;5912;51.034;6.984;2023-01-16T00:25:00;98008.91;;;2.94;79.12
11712;BME280;5912;51.034;6.984;2023-01-16T00:27:25;98005.44;;;3.00;79.67
11712;BME280;5912;51.034;6.984;2023-01-16T00:29:50;98013.22;;;3.00;78.94
11712;BME280;5912;51.034;6.984;2023-01-16T00:32:16;98004.94;;;2.91;79.34
11712;BME280;5912;51.034;6.984;2023-01-16T00:34:41;97998.69;;;2.81;80.01
11712;BME280;5912;51.034;6.984;2023-01-16T00:37:06;98003.59;;;2.71;80.29
11712;BME280;5912;51.034;6.984;2023-01-16T00:39:32;97982.91;;;2.64;80.65
11712;BME280;5912;51.034;6.984;2023-01-16T00:41:58;97986.97;;;2.60;80.89
11712;BME280;5912;51.034;6.984;2023-01-16T00:44:23;97986.97;;;2.60;81.39
11712;BME280;5912;51.034;6.984;2023-01-16T00:46:49;97987.91;;;2.48;81.54
11712;BME280;5912;51.034;6.984;2023-01-16T00:49:14;97970.81;;;2.40;81.83
11712;BME280;5912;51.034;6.984;2023-01-16T00:51:39;97983.88;;;2.52;82.87
11712;BME280;5912;51.034;6.984;2023-01-16T00:54:05;97982.72;;;2.48;83.05
11712;BME280;5912;51.034;6.984;2023-01-16T00:56:30;97973.72;;;2.50;82.84
11712;BME280;5912;51.034;6.984;2023-01-16T00:58:55;97967.50;;;2.51;82.20
11712;BME280;5912;51.034;6.984;2023-01-16T01:01:20;97973.84;;;2.55;82.12
11712;BME280;5912;51.034;6.984;2023-01-16T01:03:46;97961.78;;;2.49;82.27
11712;BME280;5912;51.034;6.984;2023-01-16T01:06:11;97967.78;;;2.61;82.68
11712;BME280;5912;51.034;6.984;2023-01-16T01:08:37;97963.63;;;2.60;81.99
11712;BME280;5912;51.034;6.984;2023-01-16T01:11:20;97954.03;;;2.61;82.69
11712;BME280;5912;51.034;6.984;2023-01-16T01:13:46;97954.75;;;2.68;82.15
11712;BME280;5912;51.034;6.984;2023-01-16T01:16:12;97947.13;;;2.73;82.73
11712;BME280;5912;51.034;6.984;2023-01-16T01:18:38;97936.97;;;2.71;82.96
11712;BME280;5912;51.034;6.984;2023-01-16T01:21:03;97907.59;;;2.59;83.84
11712;BME280;5912;51.034;6.984;2023-01-16T01:23:29;97928.97;;;2.73;82.14
11712;BME280;5912;51.034;6.984;2023-01-16T01:25:54;97921.41;;;2.71;83.35
11712;BME280;5912;51.034;6.984;2023-01-16T01:28:20;97917.88;;;2.66;84.47
11712;BME280;5912;51.034;6.984;2023-01-16T01:30:45;97890.97;;;2.49;85.00
11712;BME280;5912;51.034;6.984;2023-01-16T01:33:11;97899.34;;;2.51;85.51
11712;BME280;5912;51.034;6.984;2023-01-16T01:35:37;97897.84;;;2.43;85.95
11712;BME280;5912;51.034;6.984;2023-01-16T01:38:03;97881.44;;;2.31;86.07
11712;BME280;5912;51.034;6.984;2023-01-16T01:40:28;97888.84;;;2.28;86.95
11712;BME280;5912;51.034;6.984;2023-01-16T01:42:54;97871.72;;;2.27;85.83
11712;BME280;5912;51.034;6.984;2023-01-16T01:45:28;97864.81;;;2.21;87.13
11712;BME280;5912;51.034;6.984;2023-01-16T01:48:03;97870.66;;;2.16;86.58
11712;BME280;5912;51.034;6.984;2023-01-16T01:53:14;97867.13;;;2.11;87.60
11712;BME280;5912;51.034;6.984;2023-01-16T01:55:42;97860.81;;;2.07;88.19
11712;BME280;5912;51.034;6.984;2023-01-16T01:58:09;97854.81;;;2.06;88.02
11712;BME280;5912;51.034;6.984;2023-01-16T02:00:36;97837.00;;;1.98;89.08
11712;BME280;5912;51.034;6.984;2023-01-16T02:03:08;97847.41;;;2.10;89.39
11712;BME280;5912;51.034;6.984;2023-01-16T02:05:38;97837.38;;;2.13;88.92
11712;BME280;5912;51.034;6.984;2023-01-16T02:08:13;97829.22;;;2.16;88.60
11712;BME280;5912;51.034;6.984;2023-01-16T02:10:43;97819.25;;;2.13;88.81
11712;BME280;5912;51.034;6.984;2023-01-16T02:13:11;97803.25;;;2.05;88.38
11712;BME280;5912;51.034;6.984;2023-01-16T02:15:36;97813.22;;;2.19;88.10
11712;BME280;5912;51.034;6.984;2023-01-16T02:18:22;97808.66;;;2.15;88.27
11712;BME280;5912;51.034;6.984;2023-01-16T02:24:20;97794.16;;;2.14;88.56
11712;BME280;5912;51.034;6.984;2023-01-16T02:27:06;97797.47;;;2.21;88.65
11712;BME280;5912;51.034;6.984;2023-01-16T02:32:55;97765.69;;;1.96;90.15
11712;BME280;5912;51.034;6.984;2023-01-16T02:38:01;97756.50;;;1.82;89.98
11712;BME280;5912;51.034;6.984;2023-01-16T02:43:51;97761.06;;;1.98;88.89
11712;BME280;5912;51.034;6.984;2023-01-16T02:46:34;97740.78;;;1.95;88.02
11712;BME280;5912;51.034;6.984;2023-01-16T02:49:12;97738.66;;;1.92;88.39
11712;BME280;5912;51.034;6.984;2023-01-16T02:51:47;97731.09;;;1.90;89.06
11712;BME280;5912;51.034;6.984;2023-01-16T02:54:24;97733.81;;;1.95;88.88
11712;BME280;5912;51.034;6.984;2023-01-16T02:56:56;97727.41;;;1.98;88.08
11712;BME280;5912;51.034;6.984;2023-01-16T02:59:24;97663.03;;;1.72;88.13
11712;BME280;5912;51.034;6.984;2023-01-16T03:01:52;97693.59;;;1.93;88.33
11712;BME280;5912;51.034;6.984;2023-01-16T03:16:14;97660.25;;;2.26;86.47
11712;BME280;5912;51.034;6.984;2023-01-16T03:18:57;97639.72;;;2.13;87.17
11712;BME280;5912;51.034;6.984;2023-01-16T03:21:48;97643.66;;;2.15;87.41
11712;BME280;5912;51.034;6.984;2023-01-16T03:30:15;97622.47;;;1.95;89.40
11712;BME280;5912;51.034;6.984;2023-01-16T03:32:50;97586.72;;;1.74;89.70
11712;BME280;5912;51.034;6.984;2023-01-16T03:35:27;97606.00;;;1.90;89.42
11712;BME280;5912;51.034;6.984;2023-01-16T03:37:57;97598.44;;;1.88;89.89
11712;BME280;5912;51.034;6.984;2023-01-16T03:40:28;97598.56;;;1.82;90.82
11712;BME280;5912;51.034;6.984;2023-01-16T03:43:04;97600.00;;;1.78;91.15
11712;BME280;5912;51.034;6.984;2023-01-16T03:48:11;97589.03;;;1.64;92.33
11712;BME280;5912;51.034;6.984;2023-01-16T03:50:42;97594.66;;;1.61;92.16
11712;BME280;5912;51.034;6.984;2023-01-16T03:53:12;97585.41;;;1.53;93.06
11712;BME280;5912;51.034;6.984;2023-01-16T03:55:45;97578.31;;;1.49;92.66
11712;BME280;5912;51.034;6.984;2023-01-16T03:58:32;97568.84;;;1.43;93.79
11712;BME280;5912;51.034;6.984;2023-01-16T04:01:13;97562.31;;;1.40;94.97
11712;BME280;5912;51.034;6.984;2023-01-16T04:03:49;97534.50;;;1.36;94.37
11712;BME280;5912;51.034;6.984;2023-01-16T04:06:32;97548.97;;;1.55;93.88
11712;BME280;5912;51.034;6.984;2023-01-16T04:09:02;97541.19;;;1.55;94.10
11712;BME280;5912;51.034;6.984;2023-01-16T04:11:30;97531.66;;;1.56;93.59
11712;BME280;5912;51.034;6.984;2023-01-16T04:13:59;97519.25;;;1.58;92.85
11712;BME280;5912;51.034;6.984;2023-01-16T04:16:27;97510.94;;;1.56;92.60
11712;BME280;5912;51.034;6.984;2023-01-16T04:18:55;97497.44;;;1.53;91.62
11712;BME280;5912;51.034;6.984;2023-01-16T04:21:26;97485.06;;;1.56;91.61
11712;BME280;5912;51.034;6.984;2023-01-16T04:23:53;97478.06;;;1.56;91.01
11712;BME280;5912;51.034;6.984;2023-01-16T04:26:19;97463.13;;;1.58;91.74
11712;BME280;5912;51.034;6.984;2023-01-16T04:28:44;97461.91;;;1.61;91.67
11712;BME280;5912;51.034;6.984;2023-01-16T04:31:10;97451.09;;;1.64;91.51
11712;BME280;5912;51.034;6.984;2023-01-16T04:33:35;97431.72;;;1.66;90.59
11712;BME280;5912;51.034;6.984;2023-01-16T04:36:00;97440.28;;;1.67;90.84
11712;BME280;5912;51.034;6.984;2023-01-16T04:38:26;97425.66;;;1.61;89.70
11712;BME280;5912;51.034;6.984;2023-01-16T04:40:54;97420.56;;;1.66;90.14
11712;BME280;5912;51.034;6.984;2023-01-16T04:43:20;97403.47;;;1.65;89.65
11712;BME280;5912;51.034;6.984;2023-01-16T04:45:46;97405.63;;;1.68;89.42
11712;BME280;5912;51.034;6.984;2023-01-16T04:48:12;97370.06;;;1.51;89.59
11712;BME280;5912;51.034;6.984;2023-01-16T04:50:37;97379.63;;;1.63;89.66
11712;BME280;5912;51.034;6.984;2023-01-16T04:53:03;97372.06;;;1.61;88.66
11712;BME280;5912;51.034;6.984;2023-01-16T04:55:28;97360.38;;;1.59;88.92
11712;BME280;5912;51.034;6.984;2023-01-16T04:57:53;97357.91;;;1.64;89.29
11712;BME280;5912;51.034;6.984;2023-01-16T05:00:19;97353.72;;;1.63;89.53
11712;BME280;5912;51.034;6.984;2023-01-16T05:02:44;97344.75;;;1.65;89.18
11712;BME280;5912;51.034;6.984;2023-01-16T05:05:09;97319.88;;;1.52;88.65
11712;BME280;5912;51.034;6.984;2023-01-16T05:07:35;97341.34;;;1.65;88.04
11712;BME280;5912;51.034;6.984;2023-01-16T05:10:01;97332.56;;;1.66;88.62
11712;BME280;5912;51.034;6.984;2023-01-16T05:12:26;97317.59;;;1.68;88.05
11712;BME280;5912;51.034;6.984;2023-01-16T05:14:51;97315.91;;;1.73;88.54
11712;BME280;5912;51.034;6.984;2023-01-16T05:17:17;97316.16;;;1.72;88.61
11712;BME280;5912;51.034;6.984;2023-01-16T05:19:42;97300.38;;;1.73;87.52
11712;BME280;5912;51.034;6.984;2023-01-16T05:22:07;97307.81;;;1.70;88.17
11712;BME280;5912;51.034;6.984;2023-01-16T05:24:32;97297.34;;;1.76;87.52
11712;BME280;5912;51.034;6.984;2023-01-16T05:26:58;97291.69;;;1.79;88.37
11712;BME280;5912;51.034;6.984;2023-01-16T05:29:23;97284.16;;;1.78;87.43
11712;BME280;5912;51.034;6.984;2023-01-16T05:31:48;97276.97;;;1.80;88.48
11712;BME280;5912;51.034;6.984;2023-01-16T05:34:14;97249.94;;;1.76;87.81
11712;BME280;5912;51.034;6.984;2023-01-16T05:36:39;97226.69;;;1.64;87.80
11712;BME280;5912;51.034;6.984;2023-01-16T05:39:04;97224.75;;;1.71;88.22
11712;BME280;5912;51.034;6.984;2023-01-16T05:41:30;97227.78;;;1.80;87.61
11712;BME280;5912;51.034;6.984;2023-01-16T05:43:55;97224.94;;;1.81;87.83
11712;BME280;5912;51.034;6.984;2023-01-16T05:46:20;97217.25;;;1.86;87.98
11712;BME280;5912;51.034;6.984;2023-01-16T05:48:46;97213.34;;;1.84;87.94
11712;BME280;5912;51.034;6.984;2023-01-16T05:51:11;97214.47;;;1.88;87.58
11712;BME280;5912;51.034;6.984;2023-01-16T05:53:37;97212.72;;;1.93;87.64
11712;BME280;5912;51.034;6.984;2023-01-16T05:56:07;97215.66;;;1.97;87.50
11712;BME280;5912;51.034;6.984;2023-01-16T05:58:33;97205.53;;;1.95;87.26
11712;BME280;5912;51.034;6.984;2023-01-16T06:00:58;97190.75;;;1.96;87.53
11712;BME280;5912;51.034;6.984;2023-01-16T06:03:23;97197.84;;;2.00;87.49
11712;BME280;5912;51.034;6.984;2023-01-16T06:05:49;97184.09;;;2.00;86.89
11712;BME280;5912;51.034;6.984;2023-01-16T06:08:14;97179.50;;;2.02;86.68
11712;BME280;5912;51.034;6.984;2023-01-16T06:10:39;97172.81;;;2.06;86.78
11712;BME280;5912;51.034;6.984;2023-01-16T06:13:05;97163.00;;;2.08;86.97
11712;BME280;5912;51.034;6.984;2023-01-16T06:15:31;97148.41;;;2.02;86.59
11712;BME280;5912;51.034;6.984;2023-01-16T06:17:56;97159.38;;;2.09;85.76
11712;BME280;5912;51.034;6.984;2023-01-16T06:20:21;97164.09;;;2.12;85.33
11712;BME280;5912;51.034;6.984;2023-01-16T06:22:47;97147.63;;;2.18;85.69
11712;BME280;5912;51.034;6.984;2023-01-16T06:25:13;97148.72;;;2.22;85.16
11712;BME280;5912;51.034;6.984;2023-01-16T06:27:38;97158.28;;;2.21;85.51
11712;BME280;5912;51.034;6.984;2023-01-16T06:30:05;97112.69;;;2.20;85.06
11712;BME280;5912;51.034;6.984;2023-01-16T06:32:31;97115.38;;;2.25;85.48
11712;BME280;5912;51.034;6.984;2023-01-16T06:34:56;97080.22;;;2.13;85.46
11712;BME280;5912;51.034;6.984;2023-01-16T06:37:22;97089.47;;;2.25;84.77
11712;BME280;5912;51.034;6.984;2023-01-16T06:39:47;97084.03;;;2.27;84.72
11712;BME280;5912;51.034;6.984;2023-01-16T06:42:12;97068.41;;;2.22;84.71
11712;BME280;5912;51.034;6.984;2023-01-16T06:44:37;97071.25;;;2.20;85.13
11712;BME280;5912;51.034;6.984;2023-01-16T06:47:03;97059.25;;;2.14;84.61
11712;BME280;5912;51.034;6.984;2023-01-16T06:49:28;97038.75;;;2.13;84.53
11712;BME280;5912;51.034;6.984;2023-01-16T06:51:53;97042.59;;;2.27;83.98
11712;BME280;5912;51.034;6.984;2023-01-16T06:54:19;97033.00;;;2.27;84.09
11712;BME280;5912;51.034;6.984;2023-01-16T06:56:44;97035.53;;;2.22;84.08
11712;BME280;5912;51.034;6.984;2023-01-16T06:59:09;97024.06;;;2.18;85.17
11712;BME280;5912;51.034;6.984;2023-01-16T07:01:35;97017.16;;;2.24;83.85
11712;BME280;5912;51.034;6.984;2023-01-16T07:04:00;97002.50;;;2.13;84.60
11712;BME280;5912;51.034;6.984;2023-01-16T07:06:26;97024.38;;;2.22;84.87
11712;BME280;5912;51.034;6.984;2023-01-16T07:08:51;97017.75;;;2.31;83.78
11712;BME280;5912;51.034;6.984;2023-01-16T07:11:17;97003.00;;;2.31;83.31
11712;BME280;5912;51.034;6.984;2023-01-16T07:13:43;97001.22;;;2.32;83.65
11712;BME280;5912;51.034;6.984;2023-01-16T07:16:10;96982.28;;;2.31;83.83
11712;BME280;5912;51.034;6.984;2023-01-16T07:18:55;96964.88;;;2.27;83.06
11712;BME280;5912;51.034;6.984;2023-01-16T07:21:41;96957.66;;;2.29;82.99
11712;BME280;5912;51.034;6.984;2023-01-16T07:24:29;96951.44;;;2.30;82.59
11712;BME280;5912;51.034;6.984;2023-01-16T07:26:59;96947.34;;;2.34;82.78
11712;BME280;5912;51.034;6.984;2023-01-16T07:29:27;96936.97;;;2.34;83.13
11712;BME280;5912;51.034;6.984;2023-01-16T07:31:54;96924.03;;;2.34;82.88
11712;BME280;5912;51.034;6.984;2023-01-16T07:34:19;96925.81;;;2.33;83.24
11712;BME280;5912;51.034;6.984;2023-01-16T07:36:44;96912.25;;;2.26;82.59
11712;BME280;5912;51.034;6.984;2023-01-16T07:39:10;96901.59;;;2.23;82.30
11712;BME280;5912;51.034;6.984;2023-01-16T07:41:35;96898.56;;;2.31;82.11
11712;BME280;5912;51.034;6.984;2023-01-16T07:44:00;96851.72;;;2.11;81.53
11712;BME280;5912;51.034;6.984;2023-01-16T07:46:25;96873.53;;;2.36;81.25
11712;BME280;5912;51.034;6.984;2023-01-16T07:48:52;96865.75;;;2.36;81.10
11712;BME280;5912;51.034;6.984;2023-01-16T07:51:18;96864.38;;;2.29;81.11
11712;BME280;5912;51.034;6.984;2023-01-16T07:53:44;96865.75;;;2.36;80.89
11712;BME280;5912;51.034;6.984;2023-01-16T07:56:09;96855.06;;;2.33;81.60
11712;BME280;5912;51.034;6.984;2023-01-16T07:58:34;96833.53;;;2.27;82.37
11712;BME280;5912;51.034;6.984;2023-01-16T08:01:00;96847.59;;;2.36;83.44
11712;BME280;5912;51.034;6.984;2023-01-16T08:03:26;96837.50;;;2.35;84.88
11712;BME280;5912;51.034;6.984;2023-01-16T08:05:58;96833.56;;;2.32;86.02
11712;BME280;5912;51.034;6.984;2023-01-16T08:08:24;96819.47;;;2.23;85.83
11712;BME280;5912;51.034;6.984;2023-01-16T08:10:58;96822.88;;;2.24;86.05
11712;BME280;5912;51.034;6.984;2023-01-16T08:13:26;96763.34;;;1.81;85.87
11712;BME280;5912;51.034;6.984;2023-01-16T08:16:05;96806.19;;;2.15;85.95
11712;BME280;5912;51.034;6.984;2023-01-16T08:18:31;96806.47;;;2.18;86.70
11712;BME280;5912;51.034;6.984;2023-01-16T08:20:56;96783.91;;;2.14;85.73
11712;BME280;5912;51.034;6.984;2023-01-16T08:23:21;96781.84;;;2.16;86.30
11712;BME280;5912;51.034;6.984;2023-01-16T08:25:49;96780.38;;;2.25;85.12
11712;BME280;5912;51.034;6.984;2023-01-16T08:28:14;96765.22;;;2.12;84.99
11712;BME280;5912;51.034;6.984;2023-01-16T08:30:39;96763.84;;;2.26;85.64
11712;BME280;5912;51.034;6.984;2023-01-16T08:33:05;96758.09;;;2.24;85.89
11712;BME280;5912;51.034;6.984;2023-01-16T08:35:30;96741.41;;;2.10;84.77
11712;BME280;5912;51.034;6.984;2023-01-16T08:37:55;96758.09;;;2.24;85.56
11712;BME280;5912;51.034;6.984;2023-01-16T08:40:21;96739.47;;;2.27;84.77
11712;BME280;5912;51.034;6.984;2023-01-16T08:42:46;96728.25;;;2.16;83.96
11712;BME280;5912;51.034;6.984;2023-01-16T08:45:30;96748.84;;;2.33;84.06
11712;BME280;5912;51.034;6.984;2023-01-16T08:48:21;96740.28;;;2.27;83.95
11712;BME280;5912;51.034;6.984;2023-01-16T08:51:13;96739.53;;;2.32;84.11
11712;BME280;5912;51.034;6.984;2023-01-16T08:53:57;96709.69;;;2.29;84.12
11712;BME280;5912;51.034;6.984;2023-01-16T08:56:23;96707.31;;;2.23;83.33
11712;BME280;5912;51.034;6.984;2023-01-16T08:58:49;96711.34;;;2.40;82.98
11712;BME280;5912;51.034;6.984;2023-01-16T09:01:14;96727.69;;;2.41;82.78
11712;BME280;5912;51.034;6.984;2023-01-16T09:03:40;96719.16;;;2.45;82.95
11712;BME280;5912;51.034;6.984;2023-01-16T09:06:06;96715.25;;;2.43;83.63
11712;BME280;5912;51.034;6.984;2023-01-16T09:08:31;96705.16;;;2.41;83.42
11712;BME280;5912;51.034;6.984;2023-01-16T09:10:56;96716.06;;;2.43;82.97
11712;BME280;5912;51.034;6.984;2023-01-16T09:13:40;96709.53;;;2.41;83.26
11712;BME280;5912;51.034;6.984;2023-01-16T09:16:20;96678.34;;;2.31;82.91
11712;BME280;5912;51.034;6.984;2023-01-16T09:18:46;96698.38;;;2.40;83.46
11712;BME280;5912;51.034;6.984;2023-01-16T09:21:11;96693.94;;;2.36;84.49
11712;BME280;5912;51.034;6.984;2023-01-16T09:23:37;96680.94;;;2.31;83.67
11712;BME280;5912;51.034;6.984;2023-01-16T09:26:02;96679.41;;;2.30;84.07
11712;BME280;5912;51.034;6.984;2023-01-16T09:28:28;96676.84;;;2.35;83.91
11712;BME280;5912;51.034;6.984;2023-01-16T09:30:53;96647.97;;;2.21;84.51
11712;BME280;5912;51.034;6.984;2023-01-16T09:33:18;96662.00;;;2.25;84.12
11712;BME280;5912;51.034;6.984;2023-01-16T09:35:44;96658.75;;;2.40;84.18
11712;BME280;5912;51.034;6.984;2023-01-16T09:38:09;96652.25;;;2.37;83.19
11712;BME280;5912;51.034;6.984;2023-01-16T09:40:34;96652.53;;;2.41;83.78
11712;BME280;5912;51.034;6.984;2023-01-16T09:45:51;96625.75;;;2.25;83.94
11712;BME280;5912;51.034;6.984;2023-01-16T09:48:25;96638.03;;;2.40;83.65
11712;BME280;5912;51.034;6.984;2023-01-16T09:50:54;96643.97;;;2.35;83.32
11712;BME280;5912;51.034;6.984;2023-01-16T09:53:45;96654.34;;;2.40;83.06
11712;BME280;5912;51.034;6.984;2023-01-16T09:56:36;96635.84;;;2.27;83.47
11712;BME280;5912;51.034;6.984;2023-01-16T09:59:27;96621.81;;;2.23;83.17
11712;BME280;5912;51.034;6.984;2023-01-16T10:02:13;96637.00;;;2.41;83.06
11712;BME280;5912;51.034;6.984;2023-01-16T10:04:41;96632.06;;;2.39;83.28
11712;BME280;5912;51.034;6.984;2023-01-16T10:09:51;96632.94;;;2.55;82.46
11712;BME280;5912;51.034;6.984;2023-01-16T10:12:35;96620.28;;;2.63;82.15
11712;BME280;5912;51.034;6.984;2023-01-16T10:15:14;96609.44;;;2.71;81.53
11712;BME280;5912;51.034;6.984;2023-01-16T10:18:02;96596.50;;;2.76;80.96
11712;BME280;5912;51.034;6.984;2023-01-16T10:20:43;96603.50;;;2.76;79.49
11712;BME280;5912;51.034;6.984;2023-01-16T10:26:08;96579.94;;;2.82;79.76
11712;BME280;5912;51.034;6.984;2023-01-16T10:28:50;96583.56;;;2.81;78.83
11712;BME280;5912;51.034;6.984;2023-01-16T10:31:26;96573.19;;;2.86;78.46
11712;BME280;5912;51.034;6.984;2023-01-16T10:34:04;96586.94;;;2.87;79.18
11712;BME280;5912;51.034;6.984;2023-01-16T10:36:35;96564.66;;;2.86;78.10
11712;BME280;5912;51.034;6.984;2023-01-16T10:39:02;96564.44;;;2.92;77.80
11712;BME280;5912;51.034;6.984;2023-01-16T10:41:33;96556.41;;;2.94;77.66
11712;BME280;5912;51.034;6.984;2023-01-16T10:44:37;96559.50;;;2.96;77.76
11712;BME280;5912;51.034;6.984;2023-01-16T10:47:29;96543.69;;;3.02;77.20
11712;BME280;5912;51.034;6.984;2023-01-16T10:50:16;96565.72;;;2.95;76.74
11712;BME280;5912;51.034;6.984;2023-01-16T10:52:42;96549.38;;;2.94;77.38
11712;BME280;5912;51.034;6.984;2023-01-16T10:55:09;96547.28;;;2.91;77.42
11712;BME280;5912;51.034;6.984;2023-01-16T10:57:38;96537.72;;;2.92;77.04
11712;BME280;5912;51.034;6.984;2023-01-16T11:00:15;96510.19;;;2.81;77.18
11712;BME280;5912;51.034;6.984;2023-01-16T11:02:43;96497.72;;;2.73;77.13
11712;BME280;5912;51.034;6.984;2023-01-16T11:05:30;96521.13;;;3.03;77.11
11712;BME280;5912;51.034;6.984;2023-01-16T11:08:04;96510.25;;;3.06;76.41
11712;BME280;5912;51.034;6.984;2023-01-16T11:10:30;96506.38;;;3.14;76.58
11712;BME280;5912;51.034;6.984;2023-01-16T11:12:55;96493.16;;;3.10;75.90
11712;BME280;5912;51.034;6.984;2023-01-16T11:15:39;96498.84;;;3.17;76.03
11712;BME280;5912;51.034;6.984;2023-01-16T11:18:33;96501.19;;;3.19;75.91
11712;BME280;5912;51.034;6.984;2023-01-16T11:23:52;96472.41;;;3.10;76.58
11712;BME280;5912;51.034;6.984;2023-01-16T11:26:20;96452.34;;;2.80;76.55
11712;BME280;5912;51.034;6.984;2023-01-16T11:28:47;96461.50;;;3.03;77.42
11712;BME280;5912;51.034;6.984;2023-01-16T11:31:24;96436.56;;;2.92;77.59
11712;BME280;5912;51.034;6.984;2023-01-16T11:33:58;96455.03;;;3.31;77.24
11712;BME280;5912;51.034;6.984;2023-01-16T11:36:28;96449.31;;;3.59;75.40
11712;BME280;5912;51.034;6.984;2023-01-16T11:38:55;96446.94;;;3.77;74.83
11712;BME280;5912;51.034;6.984;2023-01-16T11:41:36;96431.59;;;3.96;73.38
11712;BME280;5912;51.034;6.984;2023-01-16T11:44:21;96417.81;;;4.05;72.59
11712;BME280;5912;51.034;6.984;2023-01-16T11:47:05;96428.66;;;4.17;71.87
11712;BME280;5912;51.034;6.984;2023-01-16T11:49:40;96429.47;;;4.13;71.81
11712;BME280;5912;51.034;6.984;2023-01-16T11:52:14;96421.97;;;3.96;72.26
11712;BME280;5912;51.034;6.984;2023-01-16T11:54:52;96416.03;;;3.91;72.50
11712;BME280;5912;51.034;6.984;2023-01-16T12:10:57;96380.66;;;4.00;71.61
11712;BME280;5912;51.034;6.984;2023-01-16T12:16:56;96365.41;;;3.83;72.11
11712;BME280;5912;51.034;6.984;2023-01-16T12:25:13;96332.28;;;3.40;74.95
11712;BME280;5912;51.034;6.984;2023-01-16T12:28:05;96325.56;;;3.29;77.70
11712;BME280;5912;51.034;6.984;2023-01-16T12:33:33;96318.84;;;2.98;80.48
11712;BME280;5912;51.034;6.984;2023-01-16T12:36:07;96307.19;;;2.95;82.06
11712;BME280;5912;51.034;6.984;2023-01-16T12:38:37;96286.16;;;2.82;82.04
11712;BME280;5912;51.034;6.984;2023-01-16T12:41:15;96276.31;;;2.74;83.28
11712;BME280;5912;51.034;6.984;2023-01-16T12:44:05;96278.41;;;2.82;83.30
11712;BME280;5912;51.034;6.984;2023-01-16T12:49:25;96270.63;;;2.77;83.45
11712;BME280;5912;51.034;6.984;2023-01-16T12:54:56;96250.66;;;2.87;83.33
11712;BME280;5912;51.034;6.984;2023-01-16T12:57:40;96234.56;;;2.95;82.84
11712;BME280;5912;51.034;6.984;2023-01-16T13:00:13;96235.59;;;2.94;82.65
11712;BME280;5912;51.034;6.984;2023-01-16T13:02:43;96223.41;;;2.95;82.92
11712;BME280;5912;51.034;6.984;2023-01-16T13:05:16;96228.34;;;3.01;82.70
11712;BME280;5912;51.034;6.984;2023-01-16T13:07:55;96221.34;;;3.02;82.78
11712;BME280;5912;51.034;6.984;2023-01-16T13:10:34;96207.34;;;2.88;83.10
11712;BME280;5912;51.034;6.984;2023-01-16T13:13:22;96198.81;;;2.87;83.82
11712;BME280;5912;51.034;6.984;2023-01-16T13:16:11;96193.38;;;2.79;83.28
11712;BME280;5912;51.034;6.984;2023-01-16T13:18:42;96188.69;;;2.86;84.15
11712;BME280;5912;51.034;6.984;2023-01-16T13:21:20;96166.91;;;2.77;83.40
11712;BME280;5912;51.034;6.984;2023-01-16T13:24:04;96178.81;;;2.93;83.77
11712;BME280;5912;51.034;6.984;2023-01-16T13:26:34;96174.66;;;3.02;83.05
11712;BME280;5912;51.034;6.984;2023-01-16T13:29:33;96155.16;;;3.10;82.73
11712;BME280;5912;51.034;6.984;2023-01-16T13:34:52;96148.19;;;3.05;82.38
11712;BME280;5912;51.034;6.984;2023-01-16T13:40:08;96151.78;;;3.14;81.58
11712;BME280;5912;51.034;6.984;2023-01-16T13:42:40;96127.72;;;2.98;82.06
11712;BME280;5912;51.034;6.984;2023-01-16T13:45:30;96143.53;;;2.97;82.15
11712;BME280;5912;51.034;6.984;2023-01-16T13:48:20;96122.56;;;2.93;82.65
11712;BME280;5912;51.034;6.984;2023-01-16T13:51:03;96123.88;;;2.91;82.11
11712;BME280;5912;51.034;6.984;2023-01-16T13:53:32;96120.50;;;2.80;83.03
11712;BME280;5912;51.034;6.984;2023-01-16T13:56:17;96130.09;;;2.85;83.52
11712;BME280;5912;51.034;6.984;2023-01-16T13:58:47;96120.25;;;2.77;84.68
11712;BME280;5912;51.034;6.984;2023-01-16T14:06:45;96114.59;;;2.75;86.66
11712;BME280;5912;51.034;6.984;2023-01-16T14:17:28;96092.31;;;2.64;87.55
11712;BME280;5912;51.034;6.984;2023-01-16T14:19:59;96103.19;;;2.66;88.12
11712;BME280;5912;51.034;6.984;2023-01-16T14:22:41;96094.41;;;2.57;89.40
11712;BME280;5912;51.034;6.984;2023-01-16T14:25:27;96089.22;;;2.52;89.63
11712;BME280;5912;51.034;6.984;2023-01-16T14:27:53;96068.31;;;2.33;91.53
11712;BME280;5912;51.034;6.984;2023-01-16T14:30:23;96077.34;;;2.41;91.89
11712;BME280;5912;51.034;6.984;2023-01-16T14:32:53;96066.22;;;2.35;91.77
11712;BME280;5912;51.034;6.984;2023-01-16T14:35:29;96055.56;;;2.42;92.73
11712;BME280;5912;51.034;6.984;2023-01-16T14:40:26;96035.44;;;2.24;91.69
11712;BME280;5912;51.034;6.984;2023-01-16T14:43:15;96046.78;;;2.38;91.38
11712;BME280;5912;51.034;6.984;2023-01-16T14:52:35;96042.13;;;2.40;91.20
11712;BME280;5912;51.034;6.984;2023-01-16T14:55:21;96038.22;;;2.42;91.63
11712;BME280;5912;51.034;6.984;2023-01-16T14:57:49;96034.88;;;2.37;90.54
11712;BME280;5912;51.034;6.984;2023-01-16T15:00:17;96028.13;;;2.41;91.08
11712;BME280;5912;51.034;6.984;2023-01-16T15:02:58;96024.00;;;2.40;90.89
11712;BME280;5912;51.034;6.984;2023-01-16T15:05:50;96019.34;;;2.37;90.79
11712;BME280;5912;51.034;6.984;2023-01-16T15:08:23;96028.66;;;2.38;91.44
11712;BME280;5912;51.034;6.984;2023-01-16T15:10:53;96013.91;;;2.33;91.84
11712;BME280;5912;51.034;6.984;2023-01-16T15:13:26;96016.75;;;2.32;90.93
11712;BME280;5912;51.034;6.984;2023-01-16T15:16:19;96002.53;;;2.24;91.49
11712;BME280;5912;51.034;6.984;2023-01-16T15:19:17;95997.38;;;2.19;91.16
11712;BME280;5912;51.034;6.984;2023-01-16T15:22:04;96009.53;;;2.29;91.23
11712;BME280;5912;51.034;6.984;2023-01-16T15:24:38;96007.19;;;2.27;90.80
11712;BME280;5912;51.034;6.984;2023-01-16T15:32:13;95999.66;;;2.31;90.95
11712;BME280;5912;51.034;6.984;2023-01-16T15:34:43;96008.47;;;2.30;90.19